Kirk, Colorado
Current Conditions -  °F | °C
As of 2:53 AM on Sunday 23 Nov 2014 (Local Time) from KITR Reporting Station
Scattered Clouds Scattered Clouds  
Wind Chill: 41°   Ceiling: Unl
Heat Index: 48°   Visibility: 10mi
Dew Point: 24°   Wind: 22mph
Humidity: 39%   Direction: 350°N
Pressure: 29.53"   Gusts: 29mph
Location:  39.61°N, 102.59°W
Report Text: KITR 230953Z AUTO 35019G25KT 10SM SCT110 09/M04 A2953 RMK AO2 PK WND 32032/0900 SLP968 T00891044
Loading
Personal Weather Stations






























Interactive Weather Map New forecast layout! Learn more

10-Day Weather Forecast

Advertisements
Track Severe Weather on mobile